createdAt,value
2023-05-16T00:02:05.897Z,2.00
2023-05-16T00:04:33.878Z,3.70
2023-05-16T00:07:01.432Z,4.62
2023-05-16T00:09:29.046Z,2.55
2023-05-16T00:11:57.024Z,3.00
2023-05-16T00:14:26.327Z,3.58
2023-05-16T00:16:54.514Z,4.65
2023-05-16T00:19:22.345Z,5.07
2023-05-16T00:21:49.795Z,6.20
2023-05-16T00:24:17.184Z,3.80
2023-05-16T00:26:44.817Z,3.20
2023-05-16T00:29:12.192Z,3.60
2023-05-16T00:31:39.582Z,4.43
2023-05-16T00:34:07.317Z,4.22
2023-05-16T00:36:35.874Z,2.80
2023-05-16T00:39:03.758Z,4.00
2023-05-16T00:41:31.760Z,3.33
2023-05-16T00:43:59.116Z,4.47
2023-05-16T00:46:26.501Z,3.53
2023-05-16T00:48:54.340Z,7.00
2023-05-16T00:51:21.720Z,3.25
2023-05-16T00:53:49.217Z,4.70
2023-05-16T00:56:17.866Z,5.25
2023-05-16T00:58:45.896Z,4.32
2023-05-16T01:01:14.376Z,4.57
2023-05-16T01:03:46.067Z,7.20
2023-05-16T01:06:13.624Z,3.15
2023-05-16T01:08:41.664Z,2.65
2023-05-16T01:11:19.966Z,2.90
2023-05-16T01:14:05.928Z,1.70
2023-05-16T01:19:44.251Z,2.08
2023-05-16T01:22:17.150Z,1.60
2023-05-16T01:25:05.767Z,4.90
2023-05-16T01:27:34.557Z,5.30
2023-05-16T01:30:06.625Z,3.05
2023-05-16T01:32:34.422Z,4.55
2023-05-16T01:35:03.083Z,3.60
2023-05-16T01:37:41.783Z,2.05
2023-05-16T01:40:13.109Z,2.35
2023-05-16T01:42:44.360Z,5.20
2023-05-16T01:45:22.406Z,2.65
2023-05-16T01:48:19.830Z,1.35
2023-05-16T01:50:53.948Z,1.80
2023-05-16T01:53:26.930Z,2.90
2023-05-16T01:55:57.356Z,2.40
2023-05-16T01:58:26.604Z,1.98
2023-05-16T02:00:54.507Z,1.85
2023-05-16T02:03:22.306Z,2.90
2023-05-16T02:05:49.918Z,2.95
2023-05-16T02:08:17.529Z,4.20
2023-05-16T02:10:45.135Z,2.28
2023-05-16T02:13:12.515Z,2.53
2023-05-16T02:15:39.937Z,2.03
2023-05-16T02:18:07.781Z,2.70
2023-05-16T02:20:35.818Z,3.67
2023-05-16T02:23:06.140Z,1.50
2023-05-16T02:25:33.840Z,2.92
2023-05-16T02:28:01.243Z,1.75
2023-05-16T02:30:28.580Z,3.30
2023-05-16T02:32:56.385Z,2.90
2023-05-16T02:35:24.548Z,3.47
2023-05-16T02:37:52.284Z,2.78
2023-05-16T02:40:20.051Z,2.33
2023-05-16T02:42:47.621Z,4.00
2023-05-16T02:45:16.415Z,3.10
2023-05-16T02:47:44.768Z,3.08
2023-05-16T02:50:12.132Z,3.22
2023-05-16T02:52:39.596Z,3.85
2023-05-16T02:57:38.137Z,3.20
2023-05-16T03:00:06.396Z,4.80
2023-05-16T03:02:34.261Z,4.68
2023-05-16T03:05:01.712Z,3.67
2023-05-16T03:07:29.239Z,3.47
2023-05-16T03:09:57.272Z,5.78
2023-05-16T03:12:24.670Z,2.65
2023-05-16T03:14:52.394Z,2.80
2023-05-16T03:17:20.119Z,2.17
2023-05-16T03:19:47.632Z,3.58
2023-05-16T03:22:15.273Z,2.22
2023-05-16T03:24:43.740Z,4.22
2023-05-16T03:27:12.152Z,2.30
2023-05-16T03:29:39.598Z,3.03
2023-05-16T03:32:07.543Z,2.90
2023-05-16T03:34:35.269Z,3.37
2023-05-16T03:37:02.682Z,3.37
2023-05-16T03:39:30.301Z,2.47
2023-05-16T03:41:57.804Z,3.47
2023-05-16T03:44:25.266Z,4.10
2023-05-16T03:46:54.217Z,2.17
2023-05-16T03:49:26.765Z,3.22
2023-05-16T03:51:54.438Z,1.90
2023-05-16T03:54:22.343Z,1.50
2023-05-16T03:56:49.923Z,2.62
2023-05-16T03:59:17.640Z,5.22
2023-05-16T04:01:45.099Z,2.40
2023-05-16T04:04:12.797Z,1.90
2023-05-16T04:06:40.521Z,2.53
2023-05-16T04:09:07.875Z,3.03
2023-05-16T04:11:36.405Z,3.17
2023-05-16T04:14:03.847Z,1.75
2023-05-16T04:16:31.305Z,2.92
2023-05-16T04:18:59.449Z,2.42
2023-05-16T04:21:26.862Z,2.35
2023-05-16T04:23:54.276Z,2.95
2023-05-16T04:26:24.944Z,4.43
2023-05-16T04:28:52.858Z,4.50
2023-05-16T04:31:20.258Z,3.60
2023-05-16T04:33:47.945Z,2.87
2023-05-16T04:36:15.317Z,2.62
2023-05-16T04:38:42.933Z,2.05
2023-05-16T04:41:10.558Z,3.42
2023-05-16T04:43:38.098Z,2.30
2023-05-16T04:46:06.796Z,7.12
2023-05-16T04:48:34.463Z,3.15
2023-05-16T04:51:01.829Z,3.85
2023-05-16T04:53:29.215Z,4.47
2023-05-16T04:55:56.870Z,2.70
2023-05-16T04:58:24.381Z,2.28
2023-05-16T05:00:52.428Z,3.10
2023-05-16T05:03:20.193Z,2.03
2023-05-16T05:05:47.805Z,4.70
2023-05-16T05:08:15.409Z,3.70
2023-05-16T05:10:43.173Z,3.25
2023-05-16T05:13:11.537Z,2.75
2023-05-16T05:15:38.939Z,2.87
2023-05-16T05:18:06.739Z,6.78
2023-05-16T05:20:34.219Z,3.62
2023-05-16T05:23:01.662Z,5.03
2023-05-16T05:25:29.579Z,4.00
2023-05-16T05:27:57.116Z,2.90
2023-05-16T05:30:24.514Z,2.95
2023-05-16T05:32:53.364Z,4.47
2023-05-16T05:35:21.316Z,3.25
2023-05-16T05:37:48.850Z,2.45
2023-05-16T05:40:16.556Z,3.83
2023-05-16T05:42:46.764Z,4.37
2023-05-16T05:45:15.987Z,3.10
2023-05-16T05:47:43.964Z,4.62
2023-05-16T05:50:11.635Z,2.42
2023-05-16T05:52:39.040Z,3.95
2023-05-16T05:55:06.934Z,4.40
2023-05-16T05:57:34.306Z,5.18
2023-05-16T06:00:01.708Z,6.18
2023-05-16T06:02:35.266Z,4.80
2023-05-16T06:05:03.031Z,11.77
2023-05-16T06:07:31.350Z,4.07
2023-05-16T06:09:59.590Z,4.30
2023-05-16T06:12:27.257Z,4.55
2023-05-16T06:14:54.737Z,4.03
2023-05-16T06:17:22.235Z,3.15
2023-05-16T06:19:49.858Z,5.22
2023-05-16T06:22:17.260Z,4.28
2023-05-16T06:24:44.635Z,4.85
2023-05-16T06:27:12.311Z,4.70
2023-05-16T06:29:39.719Z,5.68
2023-05-16T06:32:07.363Z,5.47
2023-05-16T06:34:35.292Z,6.05
2023-05-16T06:37:03.812Z,5.60
2023-05-16T06:39:31.196Z,8.73
2023-05-16T06:41:58.881Z,5.60
2023-05-16T06:44:27.135Z,7.10
2023-05-16T06:46:54.755Z,6.95
2023-05-16T06:49:22.504Z,7.65
2023-05-16T06:51:49.931Z,7.87
2023-05-16T06:54:17.354Z,8.25
2023-05-16T06:56:45.611Z,20.67
2023-05-16T06:59:13.250Z,12.45
2023-05-16T07:01:41.827Z,8.02
2023-05-16T07:04:09.625Z,9.43
2023-05-16T07:06:37.114Z,8.10
2023-05-16T07:09:04.727Z,7.32
2023-05-16T07:11:32.399Z,7.53
2023-05-16T07:13:59.817Z,6.87
2023-05-16T07:16:28.599Z,10.00
2023-05-16T07:18:56.907Z,12.55
2023-05-16T07:21:24.592Z,9.30
2023-05-16T07:23:52.076Z,8.70
2023-05-16T07:26:22.329Z,9.32
2023-05-16T07:28:50.800Z,8.85
2023-05-16T07:31:18.655Z,11.12
2023-05-16T07:33:49.323Z,10.32
2023-05-16T07:36:17.680Z,9.07
2023-05-16T07:38:45.345Z,10.65
2023-05-16T07:41:13.157Z,13.48
2023-05-16T07:43:40.578Z,10.15
2023-05-16T07:46:08.601Z,12.13
2023-05-16T07:48:36.338Z,12.75
2023-05-16T07:51:03.815Z,13.20
2023-05-16T07:53:31.216Z,12.77
2023-05-16T07:55:58.915Z,13.23
2023-05-16T07:58:26.416Z,12.48
2023-05-16T08:00:54.208Z,13.13
2023-05-16T08:03:22.243Z,14.75
2023-05-16T08:05:51.869Z,12.80
2023-05-16T08:08:19.420Z,15.30
2023-05-16T08:10:47.328Z,13.68
2023-05-16T08:13:14.839Z,15.75
2023-05-16T08:15:42.917Z,17.95
2023-05-16T08:18:15.151Z,15.48
2023-05-16T08:20:42.973Z,17.90
2023-05-16T08:23:10.706Z,18.00
2023-05-16T08:25:38.208Z,16.75
2023-05-16T08:28:05.681Z,17.35
2023-05-16T08:30:33.423Z,17.60
2023-05-16T08:33:04.840Z,19.87
2023-05-16T08:35:33.289Z,17.95
2023-05-16T08:38:00.792Z,20.92
2023-05-16T08:40:28.551Z,18.23
2023-05-16T08:42:56.360Z,19.50
2023-05-16T08:45:24.187Z,21.73
2023-05-16T08:47:55.137Z,19.33
2023-05-16T08:50:23.164Z,19.60
2023-05-16T08:52:52.609Z,20.58
2023-05-16T08:55:22.299Z,23.33
2023-05-16T08:57:51.597Z,20.62
2023-05-16T09:00:19.743Z,20.55
2023-05-16T09:02:47.386Z,19.25
2023-05-16T09:05:17.251Z,18.25
2023-05-16T09:07:45.629Z,18.62
2023-05-16T09:10:13.841Z,20.52
2023-05-16T09:12:42.358Z,17.73
2023-05-16T09:15:11.025Z,18.35
2023-05-16T09:17:43.000Z,15.77
2023-05-16T09:20:11.930Z,13.50
2023-05-16T09:22:39.628Z,14.73
2023-05-16T09:25:12.723Z,13.52
2023-05-16T09:27:53.258Z,12.18
2023-05-16T09:30:28.553Z,12.98
2023-05-16T09:32:56.385Z,13.30
2023-05-16T09:35:39.612Z,11.27
2023-05-16T09:38:16.690Z,13.82
2023-05-16T09:40:45.392Z,11.98
2023-05-16T09:43:17.097Z,12.23
2023-05-16T09:45:49.057Z,10.23
2023-05-16T09:48:18.093Z,10.68
2023-05-16T09:50:54.049Z,12.55
2023-05-16T09:53:28.724Z,11.35
2023-05-16T09:56:03.913Z,14.75
2023-05-16T09:58:33.846Z,13.30
2023-05-16T10:01:02.355Z,12.93
2023-05-16T10:03:30.374Z,13.60
2023-05-16T10:05:58.036Z,13.82
2023-05-16T10:08:26.753Z,13.90
2023-05-16T10:10:56.358Z,15.70
2023-05-16T10:13:27.274Z,13.90
2023-05-16T10:15:56.711Z,13.85
2023-05-16T10:18:31.587Z,15.35
2023-05-16T10:21:05.533Z,17.48
2023-05-16T10:23:34.025Z,16.00
2023-05-16T10:26:04.565Z,15.57
2023-05-16T10:28:32.680Z,16.12
2023-05-16T10:31:01.819Z,13.88
2023-05-16T10:33:29.836Z,17.73
2023-05-16T10:35:57.292Z,16.30
2023-05-16T10:38:25.404Z,20.37
2023-05-16T10:40:53.278Z,17.95
2023-05-16T10:43:25.243Z,19.77
2023-05-16T10:46:09.722Z,19.80
2023-05-16T10:48:39.715Z,18.60
2023-05-16T10:51:22.909Z,19.80
2023-05-16T10:53:54.705Z,20.75
2023-05-16T10:56:24.021Z,17.27
2023-05-16T10:58:53.534Z,16.55
2023-05-16T11:01:25.743Z,18.27
2023-05-16T11:03:59.563Z,20.92
2023-05-16T11:06:29.208Z,21.35
2023-05-16T11:09:13.388Z,17.67
2023-05-16T11:11:49.163Z,18.70
2023-05-16T11:14:32.885Z,20.00
2023-05-16T11:17:07.737Z,16.35
2023-05-16T11:19:36.544Z,16.90
2023-05-16T11:22:07.670Z,15.38
2023-05-16T11:24:36.693Z,16.98
2023-05-16T11:27:04.865Z,14.45
2023-05-16T11:29:36.257Z,17.58
2023-05-16T11:32:05.273Z,18.17
2023-05-16T11:34:37.723Z,15.88
2023-05-16T11:37:05.693Z,14.15
2023-05-16T11:39:33.274Z,17.08
2023-05-16T11:42:01.213Z,15.20
2023-05-16T11:44:28.964Z,18.27
2023-05-16T11:46:56.717Z,14.90
2023-05-16T11:49:24.308Z,15.73
2023-05-16T11:51:54.502Z,16.65
2023-05-16T11:54:22.422Z,15.55
2023-05-16T11:56:50.695Z,15.60
2023-05-16T11:59:18.837Z,17.55
2023-05-16T12:01:49.212Z,17.27
2023-05-16T12:04:17.714Z,16.15
2023-05-16T12:06:45.646Z,14.13
2023-05-16T12:09:18.358Z,16.90
2023-05-16T12:27:08.817Z,14.15
2023-05-16T12:29:36.601Z,15.55
2023-05-16T12:32:04.911Z,16.75
2023-05-16T12:34:32.346Z,18.65
2023-05-16T12:37:01.518Z,16.75
2023-05-16T12:39:37.282Z,14.35
2023-05-16T12:42:06.576Z,16.37
2023-05-16T12:44:34.028Z,15.75
2023-05-16T12:47:02.443Z,14.30
2023-05-16T12:49:30.245Z,13.20
2023-05-16T12:52:05.683Z,14.02
2023-05-16T12:54:35.926Z,16.98
2023-05-16T12:57:04.486Z,15.45
2023-05-16T12:59:31.859Z,15.05
2023-05-16T13:01:59.542Z,16.80
2023-05-16T13:04:26.996Z,15.88
2023-05-16T13:06:59.296Z,16.75
2023-05-16T13:09:32.098Z,15.40
2023-05-16T13:12:00.919Z,13.20
2023-05-16T13:14:28.738Z,14.38
2023-05-16T13:16:56.337Z,12.75
2023-05-16T13:19:24.521Z,15.10
2023-05-16T13:21:52.659Z,16.33
2023-05-16T13:24:20.144Z,16.65
2023-05-16T13:26:47.564Z,16.02
2023-05-16T13:29:15.309Z,15.20
2023-05-16T13:31:42.825Z,16.85
2023-05-16T13:34:10.375Z,18.90
2023-05-16T13:36:52.266Z,14.30
2023-05-16T13:39:21.872Z,16.52
2023-05-16T13:41:49.772Z,17.92
2023-05-16T13:44:18.122Z,14.65
2023-05-16T13:46:45.999Z,15.63
2023-05-16T13:49:13.737Z,18.83
2023-05-16T13:51:41.486Z,15.27
2023-05-16T13:54:09.089Z,14.50
2023-05-16T13:56:36.825Z,15.48
2023-05-16T13:59:07.138Z,16.73
2023-05-16T14:01:34.882Z,16.33
2023-05-16T14:04:03.338Z,15.90
2023-05-16T14:06:31.497Z,14.48
2023-05-16T14:08:58.956Z,12.57
2023-05-16T14:11:29.178Z,16.12
2023-05-16T14:13:58.075Z,14.18
2023-05-16T14:16:25.997Z,17.67
2023-05-16T14:18:53.855Z,19.33
2023-05-16T14:21:21.292Z,13.68
2023-05-16T14:23:51.741Z,17.87
2023-05-16T14:26:25.159Z,16.67
2023-05-16T14:28:52.599Z,13.75
2023-05-16T14:31:20.664Z,14.02
2023-05-16T14:33:49.464Z,16.62
2023-05-16T14:36:18.024Z,14.57
2023-05-16T14:38:45.814Z,15.52
2023-05-16T14:41:13.267Z,13.77
2023-05-16T14:43:40.823Z,15.23
2023-05-16T14:46:09.075Z,14.57
2023-05-16T14:48:36.620Z,16.35
2023-05-16T14:51:05.091Z,15.88
2023-05-16T14:53:32.894Z,15.90
2023-05-16T14:56:02.856Z,14.85
2023-05-16T14:58:30.759Z,17.58
2023-05-16T15:00:58.643Z,16.55
2023-05-16T15:03:26.199Z,20.27
2023-05-16T15:05:54.677Z,15.75
2023-05-16T15:08:24.014Z,16.60
2023-05-16T15:10:51.805Z,14.95
2023-05-16T15:13:19.559Z,15.60
2023-05-16T15:15:49.585Z,13.77
2023-05-16T15:18:17.705Z,14.45
2023-05-16T15:20:45.452Z,22.30
2023-05-16T15:23:15.682Z,17.15
2023-05-16T15:25:43.332Z,17.15
2023-05-16T15:28:10.934Z,19.52
2023-05-16T15:30:38.822Z,17.77
2023-05-16T15:33:06.480Z,16.73
2023-05-16T15:35:34.003Z,18.85
2023-05-16T15:38:02.134Z,18.27
2023-05-16T15:40:29.954Z,21.67
2023-05-16T15:42:57.424Z,22.08
2023-05-16T15:45:25.653Z,22.05
2023-05-16T15:47:53.869Z,27.77
2023-05-16T15:50:22.275Z,20.73
2023-05-16T15:55:25.991Z,20.12
2023-05-16T15:57:59.630Z,16.33
2023-05-16T16:00:27.377Z,20.58
2023-05-16T16:02:55.774Z,21.17
2023-05-16T16:05:23.765Z,21.52
2023-05-16T16:07:55.124Z,18.25
2023-05-16T16:10:23.169Z,17.95
2023-05-16T16:13:03.956Z,22.80
2023-05-16T16:15:33.542Z,18.40
2023-05-16T16:18:02.005Z,18.95
2023-05-16T16:20:29.788Z,17.48
2023-05-16T16:22:57.675Z,16.48
2023-05-16T16:25:25.877Z,19.33
2023-05-16T16:27:53.539Z,20.15
2023-05-16T16:30:22.821Z,21.73
2023-05-16T16:32:50.482Z,18.95
2023-05-16T16:35:18.129Z,18.42
2023-05-16T16:37:54.821Z,23.05
2023-05-16T16:40:32.983Z,19.83
2023-05-16T16:43:01.472Z,21.73
2023-05-16T16:45:29.477Z,20.05
2023-05-16T16:47:57.976Z,22.70
2023-05-16T16:50:26.373Z,21.50
2023-05-16T16:52:54.905Z,23.42
2023-05-16T16:55:22.483Z,21.20
2023-05-16T16:57:50.640Z,21.90
2023-05-16T17:00:18.772Z,20.62
2023-05-16T17:02:46.633Z,25.10
2023-05-16T17:05:14.997Z,21.42
2023-05-16T17:07:43.179Z,20.25
2023-05-16T17:10:10.723Z,19.33
2023-05-16T17:12:46.820Z,20.73
2023-05-16T17:15:14.406Z,21.52
2023-05-16T17:17:42.987Z,27.15
2023-05-16T17:20:12.887Z,25.15
2023-05-16T17:22:41.047Z,20.73
2023-05-16T17:25:10.083Z,23.38
2023-05-16T17:27:38.622Z,22.23
2023-05-16T17:30:07.646Z,21.70
2023-05-16T17:32:35.764Z,17.55
2023-05-16T17:35:04.303Z,20.55
2023-05-16T17:37:33.426Z,18.98
2023-05-16T17:40:01.521Z,21.90
2023-05-16T17:42:29.175Z,25.40
2023-05-16T17:44:57.058Z,24.20
2023-05-16T17:47:25.713Z,26.33
2023-05-16T17:49:53.252Z,25.27
2023-05-16T17:52:22.452Z,26.27
2023-05-16T17:54:50.207Z,24.45
2023-05-16T17:57:17.613Z,22.65
2023-05-16T17:59:45.159Z,23.30
2023-05-16T18:02:15.520Z,26.95
2023-05-16T18:04:46.895Z,22.30
2023-05-16T18:07:14.522Z,21.55
2023-05-16T18:09:42.292Z,22.67
2023-05-16T18:12:10.324Z,24.92
2023-05-16T18:14:43.082Z,25.70
2023-05-16T18:17:13.435Z,33.22
2023-05-16T18:19:41.630Z,28.10
2023-05-16T18:22:11.969Z,24.90
2023-05-16T18:24:40.205Z,22.73
2023-05-16T18:27:08.392Z,21.67
2023-05-16T18:29:36.524Z,18.87
2023-05-16T18:32:04.829Z,23.75
2023-05-16T18:34:32.786Z,23.85
2023-05-16T18:37:00.263Z,22.50
2023-05-16T18:39:28.011Z,20.55
2023-05-16T18:41:55.820Z,23.30
2023-05-16T18:44:24.091Z,20.75
2023-05-16T18:46:52.177Z,20.48
2023-05-16T18:49:20.527Z,21.10
2023-05-16T18:51:48.821Z,23.98
2023-05-16T18:54:16.875Z,19.98
2023-05-16T18:56:45.069Z,31.45
2023-05-16T18:59:13.409Z,25.10
2023-05-16T19:01:41.701Z,22.95
2023-05-16T19:04:10.932Z,23.87
2023-05-16T19:06:39.247Z,21.02
2023-05-16T19:09:08.556Z,21.70
2023-05-16T19:11:38.465Z,22.85
2023-05-16T19:14:06.861Z,22.10
2023-05-16T19:16:35.598Z,20.85
2023-05-16T19:19:04.719Z,23.87
2023-05-16T19:21:35.616Z,23.40
2023-05-16T19:24:03.788Z,22.17
2023-05-16T19:26:31.403Z,23.55
2023-05-16T19:29:00.498Z,21.83
2023-05-16T19:31:28.986Z,23.38
2023-05-16T19:33:59.346Z,18.10
2023-05-16T19:36:27.297Z,25.62
2023-05-16T19:38:55.351Z,21.90
2023-05-16T19:41:24.759Z,22.05
2023-05-16T19:43:52.527Z,22.87
2023-05-16T19:46:20.773Z,22.25
2023-05-16T19:48:49.169Z,25.75
2023-05-16T19:51:23.782Z,20.92
2023-05-16T19:53:57.868Z,20.65
2023-05-16T19:56:25.389Z,23.62
2023-05-16T19:58:52.959Z,19.58
2023-05-16T20:01:21.039Z,22.08
2023-05-16T20:03:49.187Z,22.70
2023-05-16T20:06:16.892Z,18.60
2023-05-16T20:08:44.375Z,18.45
2023-05-16T20:11:13.124Z,24.65
2023-05-16T20:13:40.633Z,22.83
2023-05-16T20:16:08.288Z,22.50
2023-05-16T20:18:36.376Z,19.27
2023-05-16T20:21:04.052Z,18.37
2023-05-16T20:23:31.665Z,18.20
2023-05-16T20:25:59.450Z,18.67
2023-05-16T20:28:26.954Z,23.55
2023-05-16T20:30:54.444Z,19.30
2023-05-16T20:33:22.382Z,20.83
2023-05-16T20:35:49.847Z,20.15
2023-05-16T20:38:17.276Z,23.50
2023-05-16T20:40:44.990Z,20.85
2023-05-16T20:43:12.491Z,27.73
2023-05-16T20:45:39.995Z,21.60
2023-05-16T20:48:08.431Z,18.27
2023-05-16T20:50:39.004Z,21.42
2023-05-16T20:53:06.412Z,24.63
2023-05-16T20:55:34.072Z,19.30
2023-05-16T20:58:01.532Z,19.00
2023-05-16T21:00:29.058Z,21.33
2023-05-16T21:02:56.846Z,20.27
2023-05-16T21:05:25.863Z,21.00
2023-05-16T21:07:53.806Z,18.33
2023-05-16T21:10:21.560Z,16.87
2023-05-16T21:12:50.221Z,23.20
2023-05-16T21:15:17.715Z,24.63
2023-05-16T21:17:45.697Z,21.00
2023-05-16T21:20:13.181Z,24.23
2023-05-16T21:22:41.076Z,17.60
2023-05-16T21:25:09.014Z,20.40
2023-05-16T21:27:36.459Z,21.80
2023-05-16T21:30:04.300Z,23.67
2023-05-16T21:32:32.989Z,21.42
2023-05-16T21:35:04.808Z,18.30
2023-05-16T21:37:33.076Z,23.35
2023-05-16T21:40:00.746Z,18.37
2023-05-16T21:42:28.422Z,21.00
2023-05-16T21:44:56.261Z,20.20
2023-05-16T21:47:24.300Z,19.58
2023-05-16T21:49:51.730Z,20.60
2023-05-16T21:52:19.642Z,23.05
2023-05-16T21:54:51.697Z,24.65
2023-05-16T21:57:19.811Z,20.60
2023-05-16T21:59:50.498Z,24.63
2023-05-16T22:02:22.731Z,20.10
2023-05-16T22:04:52.246Z,21.40
2023-05-16T22:07:19.972Z,25.05
2023-05-16T22:09:50.891Z,20.85
2023-05-16T22:12:18.739Z,18.90
2023-05-16T22:14:46.197Z,17.55
2023-05-16T22:17:13.673Z,20.95
2023-05-16T22:19:42.417Z,19.87
2023-05-16T22:22:10.740Z,20.52
2023-05-16T22:24:38.934Z,17.08
2023-05-16T22:27:06.705Z,17.35
2023-05-16T22:29:38.165Z,21.98
2023-05-16T22:32:09.473Z,20.67
2023-05-16T22:34:40.558Z,17.05
2023-05-16T22:37:09.430Z,17.33
2023-05-16T22:39:37.282Z,20.17
2023-05-16T22:42:05.095Z,20.10
2023-05-16T22:44:32.557Z,20.88
2023-05-16T22:47:00.555Z,20.30
2023-05-16T22:49:28.157Z,22.37
2023-05-16T22:51:55.601Z,15.05
2023-05-16T22:54:23.379Z,20.48
2023-05-16T22:56:51.890Z,16.77
2023-05-16T22:59:19.325Z,21.87
2023-05-16T23:01:47.021Z,24.02
2023-05-16T23:04:14.553Z,19.92
2023-05-16T23:06:42.001Z,20.45
2023-05-16T23:09:09.648Z,18.83
2023-05-16T23:11:37.318Z,20.20
2023-05-16T23:14:04.736Z,22.73
2023-05-16T23:16:32.405Z,22.92
2023-05-16T23:18:59.855Z,19.65
2023-05-16T23:21:27.396Z,22.67
2023-05-16T23:23:55.088Z,17.85
2023-05-16T23:26:22.550Z,18.20
2023-05-16T23:28:50.152Z,20.25
2023-05-16T23:31:17.826Z,16.10
2023-05-16T23:33:45.266Z,16.40
2023-05-16T23:36:12.704Z,24.58
2023-05-16T23:38:40.378Z,22.62
2023-05-16T23:41:07.906Z,26.58
2023-05-16T23:43:35.392Z,16.33
2023-05-16T23:46:03.093Z,17.73
2023-05-16T23:48:30.630Z,17.23
2023-05-16T23:50:58.685Z,18.65
2023-05-16T23:53:29.079Z,26.10
2023-05-16T23:55:56.497Z,17.77
2023-05-16T23:58:24.007Z,17.50
